Main page
METAR-TAF:

METAR-TAF

Airports :

Melilla, Spain

Melilla Airport

latitude: 35-17N, longitude: 002-57W, elevation: 47 m

Current weather observation

The report was made 35 minutes ago, at 01:30 UTC
Calm wind
Temperature 20°C
Humidity 88%
Pressure 1017 hPa
Visibility 10 km or more
Few clouds at a height of 2900 ft
thunderstorm, light rain, thunderstorm in vicinity

METAR: GEML 290130Z AUTO 00000KT 9999 -TSRA VCTS FEW029 ///CB 20/18 Q1017

Time: 04:05 (02:05 UTC)

Forecast

The report was made 6 hours and 5 minutes ago, at 20:00 UTC
Forecast valid from 28 at 21 UTC to 29 at 21 UTC
Wind 6 kt from the West
Visibility 10 km or more
Scattered clouds at a height of 2000 ft
Probability 40% :
Temporary
from 29 at 03 UTC to 29 at 09 UTC
Broken clouds at a height of 1200 ft

TAF: GEML 282000Z 2821/2921 28006KT 9999 SCT020 TX24/2914Z TN19/2905Z PROB40 TEMPO 2903/2909 BKN012

Weather observations and forecasts of more than 4000 airports (METAR and TAF reports).

The available stations are represented by yellow and red dots on the map.

Hover mouse over dot to see the name of the station.

Then click to see weather observations and forecasts.

To change the map : click on the green buttons with a black cross to zoom in, on the green button with a dash to zoom out, or on the green arrows for adjacent maps.


METAR-TAF: